Terminal Aerodrome Forecast
Issued by NWS

Home | Current Version | Previous Version | Text Only | Print | Product List | Glossary On
Versions: 1 2 3 4 5 6 7 8 9 10 11 12 13 14 15 16 17 18 19 20 21 22 23
583
FTUS43 KLSX 261408 AAC
TAFUIN
TAF AMD
KUIN 261408Z 2614/2712 28009KT P6SM OVC010
     FM261800 30008KT 5SM SHRA OVC010
     FM262100 32007KT 4SM SHRA VCTS OVC010CB
     FM270100 33011G17KT 5SM SHRA VCTS OVC010CB
     FM270600 31013G24KT P6SM OVC015=

USA.gov is the U.S. government's official web portal to all federal, state and local government web resources and services.